createdAt,value
2023-05-20T00:00:01.889Z,9.07
2023-05-20T00:02:47.481Z,8.70
2023-05-20T00:05:33.053Z,8.65
2023-05-20T00:08:19.586Z,8.73
2023-05-20T00:11:05.225Z,8.55
2023-05-20T00:13:50.601Z,8.32
2023-05-20T00:16:36.743Z,8.25
2023-05-20T00:19:22.312Z,8.20
2023-05-20T00:22:08.888Z,8.05
2023-05-20T00:24:54.307Z,8.23
2023-05-20T00:27:39.992Z,8.73
2023-05-20T00:30:25.447Z,8.52
2023-05-20T00:33:10.751Z,9.27
2023-05-20T00:35:56.243Z,8.63
2023-05-20T00:38:41.505Z,8.25
2023-05-20T00:41:27.368Z,7.53
2023-05-20T00:44:12.751Z,8.27
2023-05-20T00:46:58.494Z,8.38
2023-05-20T00:49:46.954Z,8.00
2023-05-20T00:52:33.942Z,8.05
2023-05-20T00:55:19.289Z,8.40
2023-05-20T00:58:04.902Z,8.50
2023-05-20T01:00:50.861Z,9.23
2023-05-20T01:03:37.044Z,9.15
2023-05-20T01:06:22.790Z,9.25
2023-05-20T01:09:08.173Z,8.43
2023-05-20T01:12:04.440Z,8.27
2023-05-20T01:15:00.508Z,7.78
2023-05-20T01:17:58.028Z,8.20
2023-05-20T01:20:44.057Z,9.50
2023-05-20T01:23:40.469Z,8.70
2023-05-20T01:26:27.274Z,8.32
2023-05-20T01:29:14.006Z,7.32
2023-05-20T01:32:01.731Z,8.65
2023-05-20T01:34:50.615Z,8.23
2023-05-20T01:37:41.380Z,7.80
2023-05-20T01:40:28.014Z,9.70
2023-05-20T01:43:15.630Z,8.15
2023-05-20T01:46:06.618Z,7.32
2023-05-20T01:48:52.325Z,9.02
2023-05-20T01:51:38.106Z,8.32
2023-05-20T01:54:23.660Z,8.43
2023-05-20T01:57:09.249Z,7.95
2023-05-20T01:59:54.755Z,8.20
2023-05-20T02:02:40.499Z,8.10
2023-05-20T02:05:26.032Z,7.70
2023-05-20T02:08:11.784Z,7.78
2023-05-20T02:10:57.253Z,8.20
2023-05-20T02:13:42.832Z,8.68
2023-05-20T02:16:28.329Z,8.70
2023-05-20T02:19:13.872Z,8.43
2023-05-20T02:21:59.656Z,8.80
2023-05-20T02:24:45.294Z,8.70
2023-05-20T02:27:30.801Z,8.23
2023-05-20T02:30:17.365Z,8.13
2023-05-20T02:33:02.762Z,8.93
2023-05-20T02:35:48.515Z,9.20
2023-05-20T02:38:33.796Z,8.35
2023-05-20T02:41:19.035Z,8.38
2023-05-20T02:44:04.791Z,8.50
2023-05-20T02:46:49.950Z,7.55
2023-05-20T02:49:35.598Z,7.25
2023-05-20T02:52:22.079Z,8.25
2023-05-20T02:55:08.517Z,7.72
2023-05-20T02:57:53.999Z,7.60
2023-05-20T03:00:41.231Z,8.30
2023-05-20T03:03:27.290Z,7.43
2023-05-20T03:06:12.730Z,8.13
2023-05-20T03:08:58.890Z,7.93
2023-05-20T03:11:44.211Z,8.13
2023-05-20T03:14:29.787Z,8.20
2023-05-20T03:17:15.223Z,8.07
2023-05-20T03:20:01.936Z,8.00
2023-05-20T03:22:47.572Z,8.15
2023-05-20T03:25:33.390Z,7.72
2023-05-20T03:28:19.260Z,7.53
2023-05-20T03:31:04.965Z,7.88
2023-05-20T03:33:50.462Z,8.60
2023-05-20T03:36:35.710Z,8.35
2023-05-20T03:39:21.071Z,8.35
2023-05-20T03:42:06.215Z,8.65
2023-05-20T03:44:51.830Z,8.73
2023-05-20T03:47:37.312Z,8.27
2023-05-20T03:50:22.844Z,7.70
2023-05-20T03:53:08.160Z,8.35
2023-05-20T03:55:53.807Z,8.25
2023-05-20T03:58:39.608Z,8.63
2023-05-20T04:01:26.020Z,8.23
2023-05-20T04:04:11.198Z,8.50
2023-05-20T04:06:56.633Z,8.50
2023-05-20T04:09:42.130Z,8.13
2023-05-20T04:12:30.644Z,28.65
2023-05-20T04:15:16.839Z,13.60
2023-05-20T04:18:02.245Z,9.82
2023-05-20T04:20:48.521Z,9.73
2023-05-20T04:23:34.300Z,9.45
2023-05-20T04:26:20.797Z,8.63
2023-05-20T04:29:06.328Z,9.10
2023-05-20T04:31:52.325Z,9.75
2023-05-20T04:34:37.754Z,8.68
2023-05-20T04:37:23.603Z,8.68
2023-05-20T04:40:09.327Z,8.45
2023-05-20T04:42:54.662Z,9.48
2023-05-20T04:45:40.415Z,9.98
2023-05-20T04:48:25.905Z,9.45
2023-05-20T04:51:11.541Z,9.32
2023-05-20T04:53:57.058Z,8.93
2023-05-20T04:56:42.387Z,9.18
2023-05-20T04:59:28.004Z,10.00
2023-05-20T05:02:14.666Z,9.20
2023-05-20T05:05:00.314Z,9.30
2023-05-20T05:07:45.727Z,9.48
2023-05-20T05:10:31.850Z,9.32
2023-05-20T05:13:17.429Z,9.23
2023-05-20T05:16:03.674Z,10.05
2023-05-20T05:18:48.903Z,9.57
2023-05-20T05:21:34.379Z,8.75
2023-05-20T05:24:19.935Z,8.75
2023-05-20T05:27:05.331Z,9.15
2023-05-20T05:29:50.550Z,8.20
2023-05-20T05:32:37.389Z,9.07
2023-05-20T05:35:23.115Z,8.98
2023-05-20T05:38:08.944Z,9.48
2023-05-20T05:40:54.595Z,9.82
2023-05-20T05:43:39.953Z,9.93
2023-05-20T05:46:25.872Z,8.90
2023-05-20T05:49:11.344Z,9.45
2023-05-20T05:51:56.982Z,9.77
2023-05-20T05:54:42.234Z,9.25
2023-05-20T05:57:27.664Z,9.65
2023-05-20T06:00:13.398Z,8.65
2023-05-20T06:02:59.045Z,8.93
2023-05-20T06:05:47.754Z,9.63
2023-05-20T06:08:33.252Z,9.57
2023-05-20T06:11:18.950Z,8.73
2023-05-20T06:14:04.381Z,9.32
2023-05-20T06:16:50.042Z,8.93
2023-05-20T06:19:35.694Z,9.13
2023-05-20T06:22:21.296Z,9.48
2023-05-20T06:25:07.521Z,9.55
2023-05-20T06:27:52.628Z,8.77
2023-05-20T06:30:38.596Z,9.00
2023-05-20T06:33:28.697Z,8.27
2023-05-20T06:36:14.375Z,8.50
2023-05-20T06:39:00.484Z,8.70
2023-05-20T06:41:46.011Z,9.35
2023-05-20T06:44:31.688Z,9.55
2023-05-20T06:47:18.115Z,9.20
2023-05-20T06:50:04.061Z,9.82
2023-05-20T06:52:49.739Z,9.35
2023-05-20T06:55:35.461Z,9.63
2023-05-20T06:58:21.534Z,9.80
2023-05-20T07:01:06.819Z,9.23
2023-05-20T07:03:52.287Z,9.40
2023-05-20T07:06:37.908Z,9.52
2023-05-20T07:09:23.764Z,8.68
2023-05-20T07:12:09.511Z,8.98
2023-05-20T07:14:54.884Z,8.82
2023-05-20T07:17:40.443Z,9.32
2023-05-20T07:20:26.004Z,9.18
2023-05-20T07:23:11.731Z,9.48
2023-05-20T07:25:57.828Z,9.88
2023-05-20T07:28:44.118Z,10.18
2023-05-20T07:31:29.855Z,9.93
2023-05-20T07:34:15.879Z,9.75
2023-05-20T07:37:01.427Z,9.70
2023-05-20T07:39:46.925Z,8.80
2023-05-20T07:42:32.151Z,9.02
2023-05-20T07:45:17.813Z,9.73
2023-05-20T07:48:04.078Z,9.65
2023-05-20T07:50:50.006Z,9.40
2023-05-20T07:53:35.459Z,9.02
2023-05-20T07:56:21.839Z,9.73
2023-05-20T07:59:07.108Z,8.93
2023-05-20T08:01:52.702Z,9.35
2023-05-20T08:04:38.743Z,9.80
2023-05-20T08:07:24.379Z,10.13
2023-05-20T08:10:10.217Z,9.73
2023-05-20T08:12:56.022Z,10.73
2023-05-20T08:15:41.551Z,10.10
2023-05-20T08:18:29.884Z,9.73
2023-05-20T08:21:15.867Z,9.23
2023-05-20T08:24:01.421Z,10.40
2023-05-20T08:26:46.610Z,9.90
2023-05-20T08:29:32.000Z,10.45
2023-05-20T08:32:17.256Z,9.80
2023-05-20T08:35:03.533Z,9.93
2023-05-20T08:37:49.077Z,9.40
2023-05-20T08:40:37.443Z,9.85
2023-05-20T08:43:24.401Z,10.27
2023-05-20T08:46:11.673Z,9.05
2023-05-20T08:48:59.356Z,9.65
2023-05-20T08:51:46.276Z,9.63
2023-05-20T08:54:49.267Z,9.35
2023-05-20T08:57:34.993Z,8.45
2023-05-20T09:00:23.693Z,8.40
2023-05-20T09:03:09.055Z,9.55
2023-05-20T09:06:03.289Z,9.82
2023-05-20T09:08:52.838Z,9.13
2023-05-20T09:11:39.344Z,9.23
2023-05-20T09:14:27.190Z,9.52
2023-05-20T09:17:13.431Z,8.90
2023-05-20T09:19:59.038Z,8.30
2023-05-20T09:22:44.314Z,9.93
2023-05-20T09:25:29.828Z,9.07
2023-05-20T09:28:15.260Z,9.25
2023-05-20T09:31:01.545Z,8.30
2023-05-20T09:33:49.364Z,8.68
2023-05-20T09:36:35.911Z,8.48
2023-05-20T09:39:30.801Z,9.70
2023-05-20T09:42:23.793Z,9.23
2023-05-20T09:45:12.177Z,8.52
2023-05-20T09:47:58.290Z,8.95
2023-05-20T09:50:44.182Z,8.63
2023-05-20T09:53:29.876Z,8.73
2023-05-20T09:56:15.257Z,8.50
2023-05-20T09:59:02.535Z,8.40
2023-05-20T10:01:48.239Z,8.68
2023-05-20T10:04:37.331Z,8.77
2023-05-20T10:07:41.277Z,8.70
2023-05-20T10:10:45.125Z,8.00
2023-05-20T10:13:55.686Z,8.55
2023-05-20T10:17:18.914Z,8.10
2023-05-20T10:20:11.835Z,8.55
2023-05-20T10:22:58.581Z,8.77
2023-05-20T10:25:51.806Z,8.52
2023-05-20T10:28:40.154Z,7.82
2023-05-20T10:31:26.169Z,9.73
2023-05-20T10:34:19.556Z,8.25
2023-05-20T10:37:04.971Z,8.85
2023-05-20T10:39:50.646Z,8.13
2023-05-20T10:42:35.956Z,9.25
2023-05-20T10:45:29.078Z,8.93
2023-05-20T10:48:24.165Z,9.38
2023-05-20T10:51:15.079Z,9.15
2023-05-20T10:54:01.829Z,9.75
2023-05-20T10:56:54.037Z,9.15
2023-05-20T10:59:40.882Z,9.18
2023-05-20T11:02:27.409Z,9.45
2023-05-20T11:05:14.590Z,9.00
2023-05-20T11:08:08.525Z,8.57
2023-05-20T11:11:06.617Z,7.68
2023-05-20T11:13:53.166Z,7.82
2023-05-20T11:16:38.408Z,8.07
2023-05-20T11:19:24.196Z,7.72
2023-05-20T11:22:09.835Z,7.95
2023-05-20T11:24:55.062Z,8.15
2023-05-20T11:27:40.558Z,8.13
2023-05-20T11:30:26.164Z,8.15
2023-05-20T11:33:17.008Z,8.77
2023-05-20T11:36:03.537Z,9.05
2023-05-20T11:38:52.180Z,9.00
2023-05-20T11:41:38.884Z,9.13
2023-05-20T11:44:24.880Z,9.05
2023-05-20T11:47:10.183Z,8.65
2023-05-20T11:50:00.390Z,8.15
2023-05-20T11:52:46.473Z,9.07
2023-05-20T11:55:33.577Z,9.10
2023-05-20T11:58:27.138Z,9.15
2023-05-20T12:01:21.553Z,8.70
2023-05-20T12:04:13.845Z,8.90
2023-05-20T12:06:59.648Z,8.50
2023-05-20T12:09:45.089Z,8.40
2023-05-20T12:12:30.646Z,8.30
2023-05-20T12:15:16.185Z,8.63
2023-05-20T12:18:01.880Z,8.52
2023-05-20T12:20:47.372Z,8.30
2023-05-20T12:23:34.331Z,8.70
2023-05-20T12:26:23.220Z,8.68
2023-05-20T12:29:08.600Z,8.88
2023-05-20T12:31:54.240Z,8.65
2023-05-20T12:34:39.957Z,7.93
2023-05-20T12:37:26.109Z,9.05
2023-05-20T12:40:12.899Z,8.75
2023-05-20T12:42:59.083Z,8.95
2023-05-20T12:45:44.872Z,8.57
2023-05-20T12:48:30.305Z,8.65
2023-05-20T12:51:15.852Z,8.40
2023-05-20T12:54:01.831Z,8.50
2023-05-20T12:56:48.449Z,8.75
2023-05-20T12:59:33.969Z,9.10
2023-05-20T13:02:19.485Z,9.15
2023-05-20T13:05:06.328Z,8.68
2023-05-20T13:07:52.162Z,9.20
2023-05-20T13:10:39.028Z,8.68
2023-05-20T13:13:24.679Z,8.65
2023-05-20T13:16:10.718Z,8.63
2023-05-20T13:18:56.196Z,8.95
2023-05-20T13:21:41.754Z,9.23
2023-05-20T13:24:27.344Z,8.82
2023-05-20T13:27:12.800Z,9.45
2023-05-20T13:29:58.438Z,9.80
2023-05-20T13:32:53.388Z,8.45
2023-05-20T13:35:39.553Z,8.38
2023-05-20T13:38:25.478Z,8.85
2023-05-20T13:41:11.416Z,8.80
2023-05-20T13:43:57.483Z,8.30
2023-05-20T13:46:43.397Z,9.05
2023-05-20T13:49:29.293Z,8.90
2023-05-20T13:52:15.274Z,9.90
2023-05-20T13:55:01.381Z,7.95
2023-05-20T13:57:47.216Z,9.50
2023-05-20T14:00:33.438Z,9.27
2023-05-20T14:03:20.321Z,8.13
2023-05-20T14:06:07.249Z,9.65
2023-05-20T14:08:55.208Z,9.88
2023-05-20T14:11:41.233Z,10.32
2023-05-20T14:14:27.108Z,10.10
2023-05-20T14:17:13.172Z,9.40
2023-05-20T14:20:01.085Z,10.07
2023-05-20T14:22:47.147Z,9.30
2023-05-20T14:25:33.119Z,8.27
2023-05-20T14:28:19.149Z,8.48
2023-05-20T14:31:05.955Z,9.93
2023-05-20T14:33:54.057Z,9.70
2023-05-20T14:36:40.020Z,9.00
2023-05-20T14:39:26.134Z,9.48
2023-05-20T14:42:12.690Z,9.60
2023-05-20T14:44:58.982Z,8.77
2023-05-20T14:47:45.070Z,9.82
2023-05-20T14:50:31.020Z,9.40
2023-05-20T14:53:19.937Z,9.95
2023-05-20T14:56:07.431Z,9.00
2023-05-20T14:58:52.879Z,10.07
2023-05-20T15:01:38.928Z,9.40
2023-05-20T15:04:24.843Z,9.35
2023-05-20T15:07:10.740Z,8.82
2023-05-20T15:09:56.750Z,9.18
2023-05-20T15:12:42.826Z,9.50
2023-05-20T15:15:28.628Z,9.05
2023-05-20T15:18:14.850Z,8.98
2023-05-20T15:21:00.780Z,8.98
2023-05-20T15:23:46.790Z,8.98
2023-05-20T15:26:32.705Z,7.95
2023-05-20T15:29:18.679Z,8.50
2023-05-20T15:32:04.848Z,8.63
2023-05-20T15:34:50.792Z,9.05
2023-05-20T15:37:36.655Z,9.57
2023-05-20T15:40:22.731Z,8.70
2023-05-20T15:43:08.532Z,8.82
2023-05-20T15:45:54.783Z,9.43
2023-05-20T15:48:40.556Z,9.60
2023-05-20T15:51:26.539Z,8.95
2023-05-20T15:54:12.514Z,9.10
2023-05-20T15:56:58.553Z,9.13
2023-05-20T15:59:44.523Z,10.02
2023-05-20T16:02:35.482Z,9.48
2023-05-20T16:05:26.308Z,9.57
2023-05-20T16:08:12.339Z,9.70
2023-05-20T16:10:58.394Z,9.82
2023-05-20T16:13:44.227Z,8.95
2023-05-20T16:16:30.363Z,9.38
2023-05-20T16:19:16.387Z,8.95
2023-05-20T16:22:02.376Z,8.80
2023-05-20T16:24:48.214Z,9.10
2023-05-20T16:27:34.371Z,9.88
2023-05-20T16:30:20.235Z,10.00
2023-05-20T16:33:06.263Z,9.85
2023-05-20T16:35:53.207Z,10.48
2023-05-20T16:38:39.836Z,10.38
2023-05-20T16:41:26.364Z,10.40
2023-05-20T16:44:12.095Z,10.10
2023-05-20T16:46:58.147Z,9.50
2023-05-20T16:49:44.169Z,10.30
2023-05-20T16:52:30.214Z,9.23
2023-05-20T16:55:16.283Z,9.90
2023-05-20T16:58:03.088Z,9.88
2023-05-20T17:00:49.255Z,9.30
2023-05-20T17:03:38.127Z,10.10
2023-05-20T17:06:24.095Z,9.07
2023-05-20T17:09:09.833Z,9.43
2023-05-20T17:11:56.017Z,8.25
2023-05-20T17:14:42.058Z,9.50
2023-05-20T17:17:27.895Z,9.38
2023-05-20T17:20:13.990Z,8.80
2023-05-20T17:22:59.707Z,8.85
2023-05-20T17:25:45.820Z,10.20
2023-05-20T17:28:31.911Z,8.75
2023-05-20T17:31:17.892Z,8.52
2023-05-20T17:34:03.876Z,9.07
2023-05-20T17:36:49.795Z,9.05
2023-05-20T17:39:35.707Z,8.80
2023-05-20T17:42:21.746Z,9.18
2023-05-20T17:45:07.767Z,9.68
2023-05-20T17:47:53.705Z,9.25
2023-05-20T17:50:39.584Z,9.15
2023-05-20T17:53:25.789Z,9.75
2023-05-20T17:56:11.659Z,10.07
2023-05-20T17:58:57.606Z,9.70
2023-05-20T18:01:43.578Z,9.50
2023-05-20T18:04:29.659Z,9.73
2023-05-20T18:07:15.576Z,9.57
2023-05-20T18:10:01.533Z,10.05
2023-05-20T18:12:47.576Z,9.65
2023-05-20T18:15:33.549Z,9.43
2023-05-20T18:18:19.364Z,9.93
2023-05-20T18:21:07.583Z,10.10
2023-05-20T18:23:53.601Z,10.13
2023-05-20T18:26:39.400Z,9.20
2023-05-20T18:29:27.498Z,10.35
2023-05-20T18:32:14.870Z,9.70
2023-05-20T18:35:01.332Z,9.93
2023-05-20T18:37:47.410Z,9.00
2023-05-20T18:40:33.517Z,9.23
2023-05-20T18:43:20.283Z,8.68
2023-05-20T18:46:06.436Z,9.18
2023-05-20T18:48:52.406Z,9.82
2023-05-20T18:51:40.692Z,9.77
2023-05-20T18:54:26.852Z,9.38
2023-05-20T18:57:13.009Z,8.77
2023-05-20T18:59:59.157Z,10.02
2023-05-20T19:02:45.290Z,9.82
2023-05-20T19:05:31.405Z,9.23
2023-05-20T19:08:17.934Z,9.95
2023-05-20T19:11:03.432Z,10.27
2023-05-20T19:13:48.898Z,9.77
2023-05-20T19:16:34.417Z,10.32
2023-05-20T19:19:20.638Z,11.63
2023-05-20T19:22:06.935Z,9.82
2023-05-20T19:24:52.715Z,9.95
2023-05-20T19:27:38.496Z,10.07
2023-05-20T19:30:24.103Z,10.23
2023-05-20T19:33:09.831Z,9.90
2023-05-20T19:35:57.824Z,10.50
2023-05-20T19:38:44.514Z,9.60
2023-05-20T19:41:30.000Z,10.27
2023-05-20T19:44:16.143Z,9.23
2023-05-20T19:47:01.831Z,10.73
2023-05-20T19:49:47.619Z,10.40
2023-05-20T19:52:33.177Z,9.15
2023-05-20T19:55:18.843Z,10.88
2023-05-20T19:58:04.370Z,10.52
2023-05-20T20:00:50.148Z,10.20
2023-05-20T20:03:35.824Z,9.48
2023-05-20T20:06:21.661Z,10.02
2023-05-20T20:09:07.251Z,11.65
2023-05-20T20:11:52.686Z,10.88
2023-05-20T20:14:38.695Z,10.70
2023-05-20T20:17:24.957Z,9.68
2023-05-20T20:20:12.407Z,10.80
2023-05-20T20:22:58.182Z,9.82
2023-05-20T20:25:44.131Z,10.15
2023-05-20T20:28:29.564Z,10.40
2023-05-20T20:31:15.068Z,10.40
2023-05-20T20:34:01.051Z,9.98
2023-05-20T20:36:47.492Z,10.27
2023-05-20T20:39:34.311Z,10.68
2023-05-20T20:42:22.516Z,11.68
2023-05-20T20:45:08.995Z,9.93
2023-05-20T20:47:57.989Z,10.93
2023-05-20T20:50:46.156Z,10.20
2023-05-20T20:53:31.927Z,11.15
2023-05-20T20:56:17.769Z,10.07
2023-05-20T20:59:04.418Z,10.55
2023-05-20T21:01:52.798Z,11.43
2023-05-20T21:04:41.295Z,11.90
2023-05-20T21:07:26.944Z,12.43
2023-05-20T21:10:13.101Z,12.98
2023-05-20T21:12:59.392Z,12.38
2023-05-20T21:15:46.614Z,12.05
2023-05-20T21:18:32.259Z,11.55
2023-05-20T21:21:20.789Z,11.57
2023-05-20T21:24:06.745Z,10.80
2023-05-20T21:26:52.404Z,11.35
2023-05-20T21:29:39.700Z,10.82
2023-05-20T21:32:26.090Z,11.75
2023-05-20T21:35:11.700Z,11.00
2023-05-20T21:37:57.585Z,11.13
2023-05-20T21:40:43.183Z,10.88
2023-05-20T21:43:30.721Z,11.80
2023-05-20T21:46:16.538Z,10.85
2023-05-20T21:49:02.200Z,11.05
2023-05-20T21:51:47.650Z,10.40
2023-05-20T21:54:33.178Z,11.07
2023-05-20T21:57:18.557Z,10.93
2023-05-20T22:00:11.524Z,11.10
2023-05-20T22:02:57.261Z,11.32
2023-05-20T22:05:46.211Z,12.23
2023-05-20T22:08:33.804Z,11.88
2023-05-20T22:11:19.988Z,12.80
2023-05-20T22:14:05.859Z,10.88
2023-05-20T22:16:51.317Z,11.52
2023-05-20T22:19:36.837Z,11.85
2023-05-20T22:22:22.446Z,12.30
2023-05-20T22:25:08.335Z,12.82
2023-05-20T22:27:54.583Z,11.65
2023-05-20T22:30:39.991Z,11.00
2023-05-20T22:33:26.892Z,10.82
2023-05-20T22:36:12.355Z,10.65
2023-05-20T22:38:57.795Z,11.52
2023-05-20T22:41:43.735Z,11.07
2023-05-20T22:44:29.054Z,10.60
2023-05-20T22:47:14.459Z,12.02
2023-05-20T22:50:02.747Z,11.57
2023-05-20T22:52:48.352Z,11.80
2023-05-20T22:55:33.994Z,11.43
2023-05-20T22:58:19.728Z,13.20
2023-05-20T23:01:07.824Z,11.40
2023-05-20T23:03:53.921Z,11.65
2023-05-20T23:06:39.772Z,10.65
2023-05-20T23:09:25.290Z,12.35
2023-05-20T23:12:10.850Z,11.82
2023-05-20T23:14:56.419Z,12.90
2023-05-20T23:17:41.951Z,12.98
2023-05-20T23:20:29.288Z,12.45
2023-05-20T23:23:14.938Z,12.88
2023-05-20T23:26:01.699Z,12.30
2023-05-20T23:28:48.115Z,11.85
2023-05-20T23:31:33.972Z,12.00
2023-05-20T23:34:19.602Z,13.57
2023-05-20T23:37:05.092Z,13.40
2023-05-20T23:39:50.420Z,13.88
2023-05-20T23:42:37.098Z,12.77
2023-05-20T23:45:22.295Z,12.23
2023-05-20T23:48:11.444Z,13.40
2023-05-20T23:50:56.733Z,12.90
2023-05-20T23:53:42.993Z,13.80
2023-05-20T23:56:28.683Z,13.75
2023-05-20T23:59:14.674Z,13.18
